sensor_id;sensor_type;location;lat;lon;timestamp;temperature;humidity
2012;DHT22;1009;51.436;6.972;2022-08-21T00:00:42;18.80;99.90
2012;DHT22;1009;51.436;6.972;2022-08-21T00:03:10;18.80;99.90
2012;DHT22;1009;51.436;6.972;2022-08-21T00:05:40;18.90;99.90
2012;DHT22;1009;51.436;6.972;2022-08-21T00:08:09;18.80;99.90
2012;DHT22;1009;51.436;6.972;2022-08-21T00:10:36;18.80;99.90
2012;DHT22;1009;51.436;6.972;2022-08-21T00:13:04;18.80;99.90
2012;DHT22;1009;51.436;6.972;2022-08-21T00:15:33;18.80;99.90
2012;DHT22;1009;51.436;6.972;2022-08-21T00:18:00;18.80;99.90
2012;DHT22;1009;51.436;6.972;2022-08-21T00:20:27;18.80;99.90
2012;DHT22;1009;51.436;6.972;2022-08-21T00:22:54;18.90;99.90
2012;DHT22;1009;51.436;6.972;2022-08-21T00:25:22;18.90;99.90
2012;DHT22;1009;51.436;6.972;2022-08-21T00:27:49;18.90;99.90
2012;DHT22;1009;51.436;6.972;2022-08-21T00:30:17;18.90;99.90
2012;DHT22;1009;51.436;6.972;2022-08-21T00:32:44;18.80;99.90
2012;DHT22;1009;51.436;6.972;2022-08-21T00:35:14;18.70;99.90
2012;DHT22;1009;51.436;6.972;2022-08-21T00:37:42;18.70;99.90
2012;DHT22;1009;51.436;6.972;2022-08-21T00:40:13;18.70;99.90
2012;DHT22;1009;51.436;6.972;2022-08-21T00:42:41;18.70;99.90
2012;DHT22;1009;51.436;6.972;2022-08-21T00:45:10;18.60;99.90
2012;DHT22;1009;51.436;6.972;2022-08-21T00:47:37;18.70;99.90
2012;DHT22;1009;51.436;6.972;2022-08-21T00:50:07;18.60;99.90
2012;DHT22;1009;51.436;6.972;2022-08-21T00:52:36;18.70;99.90
2012;DHT22;1009;51.436;6.972;2022-08-21T00:55:05;18.60;99.90
2012;DHT22;1009;51.436;6.972;2022-08-21T00:57:36;18.50;99.90
2012;DHT22;1009;51.436;6.972;2022-08-21T01:00:13;18.50;99.90
2012;DHT22;1009;51.436;6.972;2022-08-21T01:02:40;18.50;99.90
2012;DHT22;1009;51.436;6.972;2022-08-21T01:05:07;18.50;99.90
2012;DHT22;1009;51.436;6.972;2022-08-21T01:07:35;18.40;99.90
2012;DHT22;1009;51.436;6.972;2022-08-21T01:10:03;18.40;99.90
2012;DHT22;1009;51.436;6.972;2022-08-21T01:12:31;18.30;99.90
2012;DHT22;1009;51.436;6.972;2022-08-21T01:14:58;18.30;99.90
2012;DHT22;1009;51.436;6.972;2022-08-21T01:17:27;18.30;99.90
2012;DHT22;1009;51.436;6.972;2022-08-21T01:19:57;18.30;99.90
2012;DHT22;1009;51.436;6.972;2022-08-21T01:22:25;18.30;99.90
2012;DHT22;1009;51.436;6.972;2022-08-21T01:24:52;18.30;99.90
2012;DHT22;1009;51.436;6.972;2022-08-21T01:27:19;18.30;99.90
2012;DHT22;1009;51.436;6.972;2022-08-21T01:29:51;18.30;99.90
2012;DHT22;1009;51.436;6.972;2022-08-21T01:32:20;18.30;99.90
2012;DHT22;1009;51.436;6.972;2022-08-21T01:34:48;18.30;99.90
2012;DHT22;1009;51.436;6.972;2022-08-21T01:37:16;18.30;99.90
2012;DHT22;1009;51.436;6.972;2022-08-21T01:39:45;18.30;99.90
2012;DHT22;1009;51.436;6.972;2022-08-21T01:42:12;18.30;99.90
2012;DHT22;1009;51.436;6.972;2022-08-21T01:44:39;18.30;99.90
2012;DHT22;1009;51.436;6.972;2022-08-21T01:47:08;18.30;99.90
2012;DHT22;1009;51.436;6.972;2022-08-21T01:49:35;18.20;99.90
2012;DHT22;1009;51.436;6.972;2022-08-21T01:52:04;18.10;99.90
2012;DHT22;1009;51.436;6.972;2022-08-21T01:54:31;18.10;99.90
2012;DHT22;1009;51.436;6.972;2022-08-21T01:57:00;18.10;99.90
2012;DHT22;1009;51.436;6.972;2022-08-21T01:59:28;18.10;99.90
2012;DHT22;1009;51.436;6.972;2022-08-21T02:01:55;18.00;99.90
2012;DHT22;1009;51.436;6.972;2022-08-21T02:04:22;18.00;99.90
2012;DHT22;1009;51.436;6.972;2022-08-21T02:06:49;18.00;99.90
2012;DHT22;1009;51.436;6.972;2022-08-21T02:09:17;18.00;99.90
2012;DHT22;1009;51.436;6.972;2022-08-21T02:11:43;18.00;99.90
2012;DHT22;1009;51.436;6.972;2022-08-21T02:14:13;17.90;99.90
2012;DHT22;1009;51.436;6.972;2022-08-21T02:16:42;17.90;99.90
2012;DHT22;1009;51.436;6.972;2022-08-21T02:19:11;17.80;99.90
2012;DHT22;1009;51.436;6.972;2022-08-21T02:21:38;17.80;99.90
2012;DHT22;1009;51.436;6.972;2022-08-21T02:24:06;17.80;99.90
2012;DHT22;1009;51.436;6.972;2022-08-21T02:26:33;17.70;99.90
2012;DHT22;1009;51.436;6.972;2022-08-21T02:29:00;17.70;99.90
2012;DHT22;1009;51.436;6.972;2022-08-21T02:31:29;17.60;99.90
2012;DHT22;1009;51.436;6.972;2022-08-21T02:33:56;17.50;99.90
2012;DHT22;1009;51.436;6.972;2022-08-21T02:36:23;17.50;99.90
2012;DHT22;1009;51.436;6.972;2022-08-21T02:38:50;17.50;99.90
2012;DHT22;1009;51.436;6.972;2022-08-21T02:41:19;17.50;99.90
2012;DHT22;1009;51.436;6.972;2022-08-21T02:43:47;17.50;99.90
2012;DHT22;1009;51.436;6.972;2022-08-21T02:46:16;17.50;99.90
2012;DHT22;1009;51.436;6.972;2022-08-21T02:48:45;17.50;99.90
2012;DHT22;1009;51.436;6.972;2022-08-21T02:51:14;17.50;99.90
2012;DHT22;1009;51.436;6.972;2022-08-21T02:53:43;17.50;99.90
2012;DHT22;1009;51.436;6.972;2022-08-21T02:56:13;17.50;99.90
2012;DHT22;1009;51.436;6.972;2022-08-21T02:58:45;17.50;99.90
2012;DHT22;1009;51.436;6.972;2022-08-21T03:01:13;17.50;99.90
2012;DHT22;1009;51.436;6.972;2022-08-21T03:03:42;17.50;99.90
2012;DHT22;1009;51.436;6.972;2022-08-21T03:06:13;17.50;99.90
2012;DHT22;1009;51.436;6.972;2022-08-21T03:08:40;17.50;99.90
2012;DHT22;1009;51.436;6.972;2022-08-21T03:11:07;17.50;99.90
2012;DHT22;1009;51.436;6.972;2022-08-21T03:13:34;17.40;99.90
2012;DHT22;1009;51.436;6.972;2022-08-21T03:16:00;17.40;99.90
2012;DHT22;1009;51.436;6.972;2022-08-21T03:18:27;17.30;99.90
2012;DHT22;1009;51.436;6.972;2022-08-21T03:20:54;17.30;99.90
2012;DHT22;1009;51.436;6.972;2022-08-21T03:23:23;17.30;99.90
2012;DHT22;1009;51.436;6.972;2022-08-21T03:25:50;17.20;99.90
2012;DHT22;1009;51.436;6.972;2022-08-21T03:28:18;17.20;99.90
2012;DHT22;1009;51.436;6.972;2022-08-21T03:30:48;17.10;99.90
2012;DHT22;1009;51.436;6.972;2022-08-21T03:33:16;17.00;99.90
2012;DHT22;1009;51.436;6.972;2022-08-21T03:35:45;16.80;99.90
2012;DHT22;1009;51.436;6.972;2022-08-21T03:38:14;16.70;99.90
2012;DHT22;1009;51.436;6.972;2022-08-21T03:40:43;16.80;99.90
2012;DHT22;1009;51.436;6.972;2022-08-21T03:43:10;16.80;99.90
2012;DHT22;1009;51.436;6.972;2022-08-21T03:45:37;16.90;99.90
2012;DHT22;1009;51.436;6.972;2022-08-21T03:48:06;16.80;99.90
2012;DHT22;1009;51.436;6.972;2022-08-21T03:50:41;16.80;99.90
2012;DHT22;1009;51.436;6.972;2022-08-21T03:53:09;16.80;99.90
2012;DHT22;1009;51.436;6.972;2022-08-21T03:55:36;16.90;99.90
2012;DHT22;1009;51.436;6.972;2022-08-21T03:58:04;16.90;99.90
2012;DHT22;1009;51.436;6.972;2022-08-21T04:00:31;17.00;99.90
2012;DHT22;1009;51.436;6.972;2022-08-21T04:02:58;16.90;99.90
2012;DHT22;1009;51.436;6.972;2022-08-21T04:05:25;16.80;99.90
2012;DHT22;1009;51.436;6.972;2022-08-21T04:07:57;16.90;99.90
2012;DHT22;1009;51.436;6.972;2022-08-21T04:10:25;16.90;99.90
2012;DHT22;1009;51.436;6.972;2022-08-21T04:12:53;16.90;99.90
2012;DHT22;1009;51.436;6.972;2022-08-21T04:15:24;16.90;99.90
2012;DHT22;1009;51.436;6.972;2022-08-21T04:17:51;16.90;99.90
2012;DHT22;1009;51.436;6.972;2022-08-21T04:20:19;16.80;99.90
2012;DHT22;1009;51.436;6.972;2022-08-21T04:22:47;16.70;99.90
2012;DHT22;1009;51.436;6.972;2022-08-21T04:25:15;16.70;99.90
2012;DHT22;1009;51.436;6.972;2022-08-21T04:27:41;16.70;99.90
2012;DHT22;1009;51.436;6.972;2022-08-21T04:30:10;16.70;99.90
2012;DHT22;1009;51.436;6.972;2022-08-21T04:32:41;16.70;99.90
2012;DHT22;1009;51.436;6.972;2022-08-21T04:35:09;16.70;99.90
2012;DHT22;1009;51.436;6.972;2022-08-21T04:37:37;16.70;99.90
2012;DHT22;1009;51.436;6.972;2022-08-21T04:40:05;16.70;99.90
2012;DHT22;1009;51.436;6.972;2022-08-21T04:42:32;16.80;99.90
2012;DHT22;1009;51.436;6.972;2022-08-21T04:45:00;16.90;99.90
2012;DHT22;1009;51.436;6.972;2022-08-21T04:47:27;16.90;99.90
2012;DHT22;1009;51.436;6.972;2022-08-21T04:49:55;16.60;99.90
2012;DHT22;1009;51.436;6.972;2022-08-21T04:52:22;16.40;99.90
2012;DHT22;1009;51.436;6.972;2022-08-21T04:54:50;16.50;99.90
2012;DHT22;1009;51.436;6.972;2022-08-21T04:57:17;16.40;99.90
2012;DHT22;1009;51.436;6.972;2022-08-21T04:59:48;16.50;99.90
2012;DHT22;1009;51.436;6.972;2022-08-21T05:02:16;16.60;99.90
2012;DHT22;1009;51.436;6.972;2022-08-21T05:04:47;16.50;99.90
2012;DHT22;1009;51.436;6.972;2022-08-21T05:07:19;16.50;99.90
2012;DHT22;1009;51.436;6.972;2022-08-21T05:09:46;16.60;99.90
2012;DHT22;1009;51.436;6.972;2022-08-21T05:12:13;16.60;99.90
2012;DHT22;1009;51.436;6.972;2022-08-21T05:14:40;16.70;99.90
2012;DHT22;1009;51.436;6.972;2022-08-21T05:17:07;16.70;99.90
2012;DHT22;1009;51.436;6.972;2022-08-21T05:19:34;16.70;99.90
2012;DHT22;1009;51.436;6.972;2022-08-21T05:22:01;16.80;99.90
2012;DHT22;1009;51.436;6.972;2022-08-21T05:24:29;16.80;99.90
2012;DHT22;1009;51.436;6.972;2022-08-21T05:26:57;16.90;99.90
2012;DHT22;1009;51.436;6.972;2022-08-21T05:29:24;17.00;99.90
2012;DHT22;1009;51.436;6.972;2022-08-21T05:31:52;17.00;99.90
2012;DHT22;1009;51.436;6.972;2022-08-21T05:34:22;17.10;99.90
2012;DHT22;1009;51.436;6.972;2022-08-21T05:36:49;17.10;99.90
2012;DHT22;1009;51.436;6.972;2022-08-21T05:39:16;17.20;99.90
2012;DHT22;1009;51.436;6.972;2022-08-21T05:41:44;17.20;99.90
2012;DHT22;1009;51.436;6.972;2022-08-21T05:44:11;17.30;99.90
2012;DHT22;1009;51.436;6.972;2022-08-21T05:46:38;17.30;99.90
2012;DHT22;1009;51.436;6.972;2022-08-21T05:49:05;17.30;99.90
2012;DHT22;1009;51.436;6.972;2022-08-21T05:51:31;17.40;99.90
2012;DHT22;1009;51.436;6.972;2022-08-21T05:53:58;17.50;99.90
2012;DHT22;1009;51.436;6.972;2022-08-21T05:56:25;17.50;99.90
2012;DHT22;1009;51.436;6.972;2022-08-21T05:58:53;17.50;99.90
2012;DHT22;1009;51.436;6.972;2022-08-21T06:01:21;17.60;99.90
2012;DHT22;1009;51.436;6.972;2022-08-21T06:03:48;17.60;99.90
2012;DHT22;1009;51.436;6.972;2022-08-21T06:06:14;17.70;99.90
2012;DHT22;1009;51.436;6.972;2022-08-21T06:08:42;17.70;99.90
2012;DHT22;1009;51.436;6.972;2022-08-21T06:11:09;17.80;99.90
2012;DHT22;1009;51.436;6.972;2022-08-21T06:13:37;17.90;99.90
2012;DHT22;1009;51.436;6.972;2022-08-21T06:16:08;18.00;99.90
2012;DHT22;1009;51.436;6.972;2022-08-21T06:18:35;18.00;99.90
2012;DHT22;1009;51.436;6.972;2022-08-21T06:21:03;18.10;99.90
2012;DHT22;1009;51.436;6.972;2022-08-21T06:23:30;18.20;99.90
2012;DHT22;1009;51.436;6.972;2022-08-21T06:25:57;18.20;99.90
2012;DHT22;1009;51.436;6.972;2022-08-21T06:28:24;18.40;99.90
2012;DHT22;1009;51.436;6.972;2022-08-21T06:30:51;18.40;99.90
2012;DHT22;1009;51.436;6.972;2022-08-21T06:33:19;18.60;99.90
2012;DHT22;1009;51.436;6.972;2022-08-21T06:35:45;18.60;99.90
2012;DHT22;1009;51.436;6.972;2022-08-21T06:38:12;18.70;99.90
2012;DHT22;1009;51.436;6.972;2022-08-21T06:40:39;18.70;99.90
2012;DHT22;1009;51.436;6.972;2022-08-21T06:43:07;18.80;99.90
2012;DHT22;1009;51.436;6.972;2022-08-21T06:45:35;18.80;99.90
2012;DHT22;1009;51.436;6.972;2022-08-21T06:48:02;18.90;99.90
2012;DHT22;1009;51.436;6.972;2022-08-21T06:50:31;19.00;99.90
2012;DHT22;1009;51.436;6.972;2022-08-21T06:52:59;19.00;99.90
2012;DHT22;1009;51.436;6.972;2022-08-21T06:55:26;19.00;99.90
2012;DHT22;1009;51.436;6.972;2022-08-21T06:57:53;19.00;99.90
2012;DHT22;1009;51.436;6.972;2022-08-21T07:00:20;19.00;99.90
2012;DHT22;1009;51.436;6.972;2022-08-21T07:02:47;19.00;99.90
2012;DHT22;1009;51.436;6.972;2022-08-21T07:05:14;19.10;99.90
2012;DHT22;1009;51.436;6.972;2022-08-21T07:07:42;19.20;99.90
2012;DHT22;1009;51.436;6.972;2022-08-21T07:10:10;19.30;99.90
2012;DHT22;1009;51.436;6.972;2022-08-21T07:12:36;19.40;99.90
2012;DHT22;1009;51.436;6.972;2022-08-21T07:15:04;19.50;99.90
2012;DHT22;1009;51.436;6.972;2022-08-21T07:17:31;19.60;99.90
2012;DHT22;1009;51.436;6.972;2022-08-21T07:19:58;19.70;99.90
2012;DHT22;1009;51.436;6.972;2022-08-21T07:22:25;19.70;99.90
2012;DHT22;1009;51.436;6.972;2022-08-21T07:24:55;19.80;99.90
2012;DHT22;1009;51.436;6.972;2022-08-21T07:27:21;20.00;99.90
2012;DHT22;1009;51.436;6.972;2022-08-21T07:29:48;20.00;99.90
2012;DHT22;1009;51.436;6.972;2022-08-21T07:32:15;20.00;99.90
2012;DHT22;1009;51.436;6.972;2022-08-21T07:34:42;20.10;99.90
2012;DHT22;1009;51.436;6.972;2022-08-21T07:37:10;20.20;99.90
2012;DHT22;1009;51.436;6.972;2022-08-21T07:39:36;20.20;99.90
2012;DHT22;1009;51.436;6.972;2022-08-21T07:42:05;20.40;99.90
2012;DHT22;1009;51.436;6.972;2022-08-21T07:44:32;20.50;99.90
2012;DHT22;1009;51.436;6.972;2022-08-21T07:46:59;20.50;99.90
2012;DHT22;1009;51.436;6.972;2022-08-21T07:49:26;20.60;99.90
2012;DHT22;1009;51.436;6.972;2022-08-21T07:51:53;20.60;99.90
2012;DHT22;1009;51.436;6.972;2022-08-21T07:54:20;20.70;99.90
2012;DHT22;1009;51.436;6.972;2022-08-21T07:56:47;20.80;99.90
2012;DHT22;1009;51.436;6.972;2022-08-21T07:59:15;20.70;99.90
2012;DHT22;1009;51.436;6.972;2022-08-21T08:01:42;20.70;99.90
2012;DHT22;1009;51.436;6.972;2022-08-21T08:04:09;20.70;99.90
2012;DHT22;1009;51.436;6.972;2022-08-21T08:06:36;20.80;99.90
2012;DHT22;1009;51.436;6.972;2022-08-21T08:09:02;20.90;99.90
2012;DHT22;1009;51.436;6.972;2022-08-21T08:11:29;21.00;99.90
2012;DHT22;1009;51.436;6.972;2022-08-21T08:13:56;21.10;99.90
2012;DHT22;1009;51.436;6.972;2022-08-21T08:16:26;21.10;99.90
2012;DHT22;1009;51.436;6.972;2022-08-21T08:18:53;21.00;99.90
2012;DHT22;1009;51.436;6.972;2022-08-21T08:21:45;21.10;99.90
2012;DHT22;1009;51.436;6.972;2022-08-21T08:24:14;21.20;99.90
2012;DHT22;1009;51.436;6.972;2022-08-21T08:26:41;21.40;99.90
2012;DHT22;1009;51.436;6.972;2022-08-21T08:29:08;21.40;99.90
2012;DHT22;1009;51.436;6.972;2022-08-21T08:31:36;21.50;99.90
2012;DHT22;1009;51.436;6.972;2022-08-21T08:34:03;21.70;99.90
2012;DHT22;1009;51.436;6.972;2022-08-21T08:36:33;21.70;99.90
2012;DHT22;1009;51.436;6.972;2022-08-21T08:39:00;21.90;99.90
2012;DHT22;1009;51.436;6.972;2022-08-21T08:41:28;22.00;99.90
2012;DHT22;1009;51.436;6.972;2022-08-21T08:43:59;22.10;99.90
2012;DHT22;1009;51.436;6.972;2022-08-21T08:46:31;22.00;99.90
2012;DHT22;1009;51.436;6.972;2022-08-21T08:49:06;22.00;99.90
2012;DHT22;1009;51.436;6.972;2022-08-21T08:51:40;22.00;99.90
2012;DHT22;1009;51.436;6.972;2022-08-21T08:54:09;22.00;99.90
2012;DHT22;1009;51.436;6.972;2022-08-21T08:56:38;22.20;99.90
2012;DHT22;1009;51.436;6.972;2022-08-21T08:59:09;22.30;99.90
2012;DHT22;1009;51.436;6.972;2022-08-21T09:01:39;22.30;99.90
2012;DHT22;1009;51.436;6.972;2022-08-21T09:04:09;22.30;99.90
2012;DHT22;1009;51.436;6.972;2022-08-21T09:06:49;22.30;99.90
2012;DHT22;1009;51.436;6.972;2022-08-21T09:09:28;22.30;99.90
2012;DHT22;1009;51.436;6.972;2022-08-21T09:12:02;22.50;99.90
2012;DHT22;1009;51.436;6.972;2022-08-21T09:14:42;22.50;99.90
2012;DHT22;1009;51.436;6.972;2022-08-21T09:17:26;22.50;99.90
2012;DHT22;1009;51.436;6.972;2022-08-21T09:20:03;22.50;99.90
2012;DHT22;1009;51.436;6.972;2022-08-21T09:22:46;22.40;99.90
2012;DHT22;1009;51.436;6.972;2022-08-21T09:25:21;22.50;99.90
2012;DHT22;1009;51.436;6.972;2022-08-21T09:27:48;22.60;99.90
2012;DHT22;1009;51.436;6.972;2022-08-21T09:30:16;22.40;99.90
2012;DHT22;1009;51.436;6.972;2022-08-21T09:32:44;22.50;99.90
2012;DHT22;1009;51.436;6.972;2022-08-21T09:35:14;22.70;99.90
2012;DHT22;1009;51.436;6.972;2022-08-21T09:37:48;22.80;99.90
2012;DHT22;1009;51.436;6.972;2022-08-21T09:40:28;23.00;99.90
2012;DHT22;1009;51.436;6.972;2022-08-21T09:42:59;23.30;99.90
2012;DHT22;1009;51.436;6.972;2022-08-21T09:45:26;23.40;99.90
2012;DHT22;1009;51.436;6.972;2022-08-21T09:47:53;23.30;99.90
2012;DHT22;1009;51.436;6.972;2022-08-21T09:50:24;23.30;99.90
2012;DHT22;1009;51.436;6.972;2022-08-21T09:52:54;23.50;99.90
2012;DHT22;1009;51.436;6.972;2022-08-21T09:55:30;23.60;99.90
2012;DHT22;1009;51.436;6.972;2022-08-21T09:58:15;23.60;99.90
2012;DHT22;1009;51.436;6.972;2022-08-21T10:00:43;23.70;99.90
2012;DHT22;1009;51.436;6.972;2022-08-21T10:03:16;23.90;99.90
2012;DHT22;1009;51.436;6.972;2022-08-21T10:05:55;24.00;99.90
2012;DHT22;1009;51.436;6.972;2022-08-21T10:08:23;24.00;99.90
2012;DHT22;1009;51.436;6.972;2022-08-21T10:10:54;24.20;99.90
2012;DHT22;1009;51.436;6.972;2022-08-21T10:13:29;24.10;99.90
2012;DHT22;1009;51.436;6.972;2022-08-21T10:16:05;24.00;99.90
2012;DHT22;1009;51.436;6.972;2022-08-21T10:18:38;24.30;99.90
2012;DHT22;1009;51.436;6.972;2022-08-21T10:21:13;24.30;99.90
2012;DHT22;1009;51.436;6.972;2022-08-21T10:23:53;24.50;99.90
2012;DHT22;1009;51.436;6.972;2022-08-21T10:26:29;24.60;99.90
2012;DHT22;1009;51.436;6.972;2022-08-21T10:29:03;24.60;99.90
2012;DHT22;1009;51.436;6.972;2022-08-21T10:31:42;24.80;99.90
2012;DHT22;1009;51.436;6.972;2022-08-21T10:34:26;24.80;99.90
2012;DHT22;1009;51.436;6.972;2022-08-21T10:37:10;24.80;99.90
2012;DHT22;1009;51.436;6.972;2022-08-21T10:39:49;24.70;99.90
2012;DHT22;1009;51.436;6.972;2022-08-21T10:42:28;24.70;99.90
2012;DHT22;1009;51.436;6.972;2022-08-21T10:45:14;24.80;99.90
2012;DHT22;1009;51.436;6.972;2022-08-21T10:47:46;24.90;99.90
2012;DHT22;1009;51.436;6.972;2022-08-21T10:50:24;25.00;99.90
2012;DHT22;1009;51.436;6.972;2022-08-21T10:53:16;24.80;99.90
2012;DHT22;1009;51.436;6.972;2022-08-21T10:55:52;24.70;99.90
2012;DHT22;1009;51.436;6.972;2022-08-21T10:58:25;24.90;99.90
2012;DHT22;1009;51.436;6.972;2022-08-21T11:00:55;25.10;99.90
2012;DHT22;1009;51.436;6.972;2022-08-21T11:03:29;25.10;99.90
2012;DHT22;1009;51.436;6.972;2022-08-21T11:06:02;25.20;99.90
2012;DHT22;1009;51.436;6.972;2022-08-21T11:08:35;25.40;99.90
2012;DHT22;1009;51.436;6.972;2022-08-21T11:11:06;25.40;99.90
2012;DHT22;1009;51.436;6.972;2022-08-21T11:13:39;25.40;99.90
2012;DHT22;1009;51.436;6.972;2022-08-21T11:16:12;25.30;99.90
2012;DHT22;1009;51.436;6.972;2022-08-21T11:18:46;25.20;99.90
2012;DHT22;1009;51.436;6.972;2022-08-21T11:21:26;25.20;99.90
2012;DHT22;1009;51.436;6.972;2022-08-21T11:24:02;25.30;99.90
2012;DHT22;1009;51.436;6.972;2022-08-21T11:26:34;25.20;99.90
2012;DHT22;1009;51.436;6.972;2022-08-21T11:29:09;25.00;99.90
2012;DHT22;1009;51.436;6.972;2022-08-21T11:31:50;24.80;99.90
2012;DHT22;1009;51.436;6.972;2022-08-21T11:34:28;24.60;99.90
2012;DHT22;1009;51.436;6.972;2022-08-21T11:37:02;24.60;99.90
2012;DHT22;1009;51.436;6.972;2022-08-21T11:39:38;24.70;99.90
2012;DHT22;1009;51.436;6.972;2022-08-21T11:42:15;25.00;99.90
2012;DHT22;1009;51.436;6.972;2022-08-21T11:44:49;25.10;99.90
2012;DHT22;1009;51.436;6.972;2022-08-21T11:47:25;25.10;99.90
2012;DHT22;1009;51.436;6.972;2022-08-21T11:50:06;25.20;99.90
2012;DHT22;1009;51.436;6.972;2022-08-21T11:52:41;25.50;99.90
2012;DHT22;1009;51.436;6.972;2022-08-21T11:55:15;25.70;99.90
2012;DHT22;1009;51.436;6.972;2022-08-21T11:57:49;26.00;99.90
2012;DHT22;1009;51.436;6.972;2022-08-21T12:00:22;26.00;99.90
2012;DHT22;1009;51.436;6.972;2022-08-21T12:02:52;26.20;99.90
2012;DHT22;1009;51.436;6.972;2022-08-21T12:05:27;26.50;99.90
2012;DHT22;1009;51.436;6.972;2022-08-21T12:08:06;26.50;99.40
2012;DHT22;1009;51.436;6.972;2022-08-21T12:10:37;26.40;99.90
2012;DHT22;1009;51.436;6.972;2022-08-21T12:13:08;26.20;98.50
2012;DHT22;1009;51.436;6.972;2022-08-21T12:15:37;26.10;99.20
2012;DHT22;1009;51.436;6.972;2022-08-21T12:18:06;25.80;99.90
2012;DHT22;1009;51.436;6.972;2022-08-21T12:20:45;25.50;99.70
2012;DHT22;1009;51.436;6.972;2022-08-21T12:23:28;25.70;99.90
2012;DHT22;1009;51.436;6.972;2022-08-21T12:26:09;25.80;99.90
2012;DHT22;1009;51.436;6.972;2022-08-21T12:28:37;26.20;98.90
2012;DHT22;1009;51.436;6.972;2022-08-21T12:31:17;26.50;97.70
2012;DHT22;1009;51.436;6.972;2022-08-21T12:33:51;26.70;99.90
2012;DHT22;1009;51.436;6.972;2022-08-21T12:36:23;26.50;99.90
2012;DHT22;1009;51.436;6.972;2022-08-21T12:38:54;26.50;98.40
2012;DHT22;1009;51.436;6.972;2022-08-21T12:41:27;26.60;98.60
2012;DHT22;1009;51.436;6.972;2022-08-21T12:43:58;26.80;99.90
2012;DHT22;1009;51.436;6.972;2022-08-21T12:46:32;27.30;97.30
2012;DHT22;1009;51.436;6.972;2022-08-21T12:49:07;27.40;97.80
2012;DHT22;1009;51.436;6.972;2022-08-21T12:51:42;27.50;98.30
2012;DHT22;1009;51.436;6.972;2022-08-21T12:54:23;27.40;98.90
2012;DHT22;1009;51.436;6.972;2022-08-21T12:56:58;27.20;96.60
2012;DHT22;1009;51.436;6.972;2022-08-21T12:59:26;27.20;98.30
2012;DHT22;1009;51.436;6.972;2022-08-21T13:01:54;26.90;97.90
2012;DHT22;1009;51.436;6.972;2022-08-21T13:04:26;26.90;96.00
2012;DHT22;1009;51.436;6.972;2022-08-21T13:06:55;26.90;95.90
2012;DHT22;1009;51.436;6.972;2022-08-21T13:09:27;26.80;95.70
2012;DHT22;1009;51.436;6.972;2022-08-21T13:11:54;26.50;95.90
2012;DHT22;1009;51.436;6.972;2022-08-21T13:14:27;26.20;96.30
2012;DHT22;1009;51.436;6.972;2022-08-21T13:16:55;26.30;99.40
2012;DHT22;1009;51.436;6.972;2022-08-21T13:19:23;26.30;99.90
2012;DHT22;1009;51.436;6.972;2022-08-21T13:21:51;26.20;99.30
2012;DHT22;1009;51.436;6.972;2022-08-21T13:24:21;26.30;98.10
2012;DHT22;1009;51.436;6.972;2022-08-21T13:26:48;26.50;99.90
2012;DHT22;1009;51.436;6.972;2022-08-21T13:29:17;26.70;97.90
2012;DHT22;1009;51.436;6.972;2022-08-21T13:31:50;26.90;97.10
2012;DHT22;1009;51.436;6.972;2022-08-21T13:34:18;27.10;97.30
2012;DHT22;1009;51.436;6.972;2022-08-21T13:36:46;26.60;96.30
2012;DHT22;1009;51.436;6.972;2022-08-21T13:39:16;26.30;97.70
2012;DHT22;1009;51.436;6.972;2022-08-21T13:41:48;25.90;98.40
2012;DHT22;1009;51.436;6.972;2022-08-21T13:44:17;25.90;99.40
2012;DHT22;1009;51.436;6.972;2022-08-21T13:46:47;26.40;97.10
2012;DHT22;1009;51.436;6.972;2022-08-21T13:49:17;26.30;97.20
2012;DHT22;1009;51.436;6.972;2022-08-21T13:51:45;26.30;99.90
2012;DHT22;1009;51.436;6.972;2022-08-21T13:54:22;26.50;98.70
2012;DHT22;1009;51.436;6.972;2022-08-21T13:56:49;26.80;97.20
2012;DHT22;1009;51.436;6.972;2022-08-21T13:59:24;26.80;95.50
2012;DHT22;1009;51.436;6.972;2022-08-21T14:01:56;27.00;94.50
2012;DHT22;1009;51.436;6.972;2022-08-21T14:04:29;26.90;95.40
2012;DHT22;1009;51.436;6.972;2022-08-21T14:06:58;26.70;97.70
2012;DHT22;1009;51.436;6.972;2022-08-21T14:09:30;26.80;99.00
2012;DHT22;1009;51.436;6.972;2022-08-21T14:11:58;26.70;94.20
2012;DHT22;1009;51.436;6.972;2022-08-21T14:14:28;26.50;93.40
2012;DHT22;1009;51.436;6.972;2022-08-21T14:16:59;26.20;93.60
2012;DHT22;1009;51.436;6.972;2022-08-21T14:19:27;25.80;93.90
2012;DHT22;1009;51.436;6.972;2022-08-21T14:21:55;25.70;94.50
2012;DHT22;1009;51.436;6.972;2022-08-21T14:24:27;25.60;95.90
2012;DHT22;1009;51.436;6.972;2022-08-21T14:26:55;25.70;94.20
2012;DHT22;1009;51.436;6.972;2022-08-21T14:29:25;25.70;94.70
2012;DHT22;1009;51.436;6.972;2022-08-21T14:31:54;25.70;95.10
2012;DHT22;1009;51.436;6.972;2022-08-21T14:34:25;25.60;93.40
2012;DHT22;1009;51.436;6.972;2022-08-21T14:36:53;25.60;94.20
2012;DHT22;1009;51.436;6.972;2022-08-21T14:39:20;25.60;96.60
2012;DHT22;1009;51.436;6.972;2022-08-21T14:41:47;25.70;97.00
2012;DHT22;1009;51.436;6.972;2022-08-21T14:44:15;25.60;96.30
2012;DHT22;1009;51.436;6.972;2022-08-21T14:46:43;25.50;95.10
2012;DHT22;1009;51.436;6.972;2022-08-21T14:49:10;25.60;95.60
2012;DHT22;1009;51.436;6.972;2022-08-21T14:51:38;25.50;93.90
2012;DHT22;1009;51.436;6.972;2022-08-21T14:54:05;25.60;92.70
2012;DHT22;1009;51.436;6.972;2022-08-21T14:56:32;25.80;96.50
2012;DHT22;1009;51.436;6.972;2022-08-21T14:59:03;26.00;96.40
2012;DHT22;1009;51.436;6.972;2022-08-21T15:01:31;26.00;95.30
2012;DHT22;1009;51.436;6.972;2022-08-21T15:03:59;26.10;93.90
2012;DHT22;1009;51.436;6.972;2022-08-21T15:06:25;26.10;94.40
2012;DHT22;1009;51.436;6.972;2022-08-21T15:08:54;25.90;96.30
2012;DHT22;1009;51.436;6.972;2022-08-21T15:11:23;25.70;95.10
2012;DHT22;1009;51.436;6.972;2022-08-21T15:13:55;25.60;95.60
2012;DHT22;1009;51.436;6.972;2022-08-21T15:16:23;25.60;95.90
2012;DHT22;1009;51.436;6.972;2022-08-21T15:18:50;25.70;94.40
2012;DHT22;1009;51.436;6.972;2022-08-21T15:21:16;25.70;94.30
2012;DHT22;1009;51.436;6.972;2022-08-21T15:23:43;25.50;92.00
2012;DHT22;1009;51.436;6.972;2022-08-21T15:26:11;25.20;92.40
2012;DHT22;1009;51.436;6.972;2022-08-21T15:28:38;25.00;93.80
2012;DHT22;1009;51.436;6.972;2022-08-21T15:31:06;24.90;94.50
2012;DHT22;1009;51.436;6.972;2022-08-21T15:33:33;24.90;95.30
2012;DHT22;1009;51.436;6.972;2022-08-21T15:36:00;24.90;97.10
2012;DHT22;1009;51.436;6.972;2022-08-21T15:38:27;25.00;97.60
2012;DHT22;1009;51.436;6.972;2022-08-21T15:40:53;25.10;98.20
2012;DHT22;1009;51.436;6.972;2022-08-21T15:43:24;25.10;97.90
2012;DHT22;1009;51.436;6.972;2022-08-21T15:45:51;25.00;98.80
2012;DHT22;1009;51.436;6.972;2022-08-21T15:48:19;25.00;96.60
2012;DHT22;1009;51.436;6.972;2022-08-21T15:50:46;25.20;97.50
2012;DHT22;1009;51.436;6.972;2022-08-21T15:53:12;25.40;97.20
2012;DHT22;1009;51.436;6.972;2022-08-21T15:55:40;25.30;96.80
2012;DHT22;1009;51.436;6.972;2022-08-21T15:58:06;25.20;96.60
2012;DHT22;1009;51.436;6.972;2022-08-21T16:00:35;25.00;96.60
2012;DHT22;1009;51.436;6.972;2022-08-21T16:03:04;24.90;97.00
2012;DHT22;1009;51.436;6.972;2022-08-21T16:05:32;24.70;97.20
2012;DHT22;1009;51.436;6.972;2022-08-21T16:07:59;24.60;97.80
2012;DHT22;1009;51.436;6.972;2022-08-21T16:10:26;24.60;98.70
2012;DHT22;1009;51.436;6.972;2022-08-21T16:12:55;24.40;98.20
2012;DHT22;1009;51.436;6.972;2022-08-21T16:15:23;24.40;98.20
2012;DHT22;1009;51.436;6.972;2022-08-21T16:17:53;24.40;98.70